Time;durP1;ratioP1;P1;durP2;ratioP2;P2;SDS_P1;SDS_P2;PMS_P1;PMS_P2;Temp;Humidity;BMP_temperature;BMP_pressure;BME280_temperature;BME280_humidity;BME280_pressure;Samples;Min_cycle;Max_cycle;Signal;HPM_P1;HPM_P2
2022/08/02 00:02:13;;;;;;;4.50;1.50;;;18.10;99.90;;;;;;5026779;28;20129;-71
2022/08/02 00:04:38;;;;;;;1.63;1.35;;;18.10;99.90;;;;;;5027264;28;20105;-71
2022/08/02 00:07:04;;;;;;;2.08;1.38;;;18.00;99.90;;;;;;5027371;28;20022;-72
2022/08/02 00:09:30;;;;;;;1.98;1.30;;;17.90;99.90;;;;;;5026820;28;20048;-72
2022/08/02 00:11:55;;;;;;;3.13;1.60;;;17.90;99.90;;;;;;5027716;28;20196;-71
2022/08/02 00:14:21;;;;;;;3.60;1.58;;;17.80;99.90;;;;;;5025569;28;20103;-71
2022/08/02 00:16:47;;;;;;;2.15;1.50;;;17.80;99.90;;;;;;5026601;28;20050;-73
2022/08/02 00:19:13;;;;;;;2.58;1.63;;;17.70;99.90;;;;;;5027482;28;20033;-70
2022/08/02 00:21:38;;;;;;;5.82;1.58;;;17.70;99.90;;;;;;5025277;28;20479;-71
2022/08/02 00:24:04;;;;;;;2.28;1.80;;;17.60;99.90;;;;;;5027362;28;20060;-71
2022/08/02 00:26:30;;;;;;;2.90;1.70;;;17.70;99.90;;;;;;5027291;28;20455;-72
2022/08/02 00:28:56;;;;;;;3.67;1.67;;;17.70;99.90;;;;;;5027247;28;20104;-71
2022/08/02 00:31:21;;;;;;;2.25;1.70;;;17.80;99.90;;;;;;5026876;28;20112;-73
2022/08/02 00:33:47;;;;;;;3.17;2.10;;;17.80;99.90;;;;;;5027384;28;20037;-72
2022/08/02 00:36:13;;;;;;;2.78;1.80;;;17.80;99.90;;;;;;5028473;28;20112;-72
2022/08/02 00:38:39;;;;;;;3.25;1.90;;;17.80;99.90;;;;;;5024991;28;20026;-70
2022/08/02 00:41:15;;;;;;;3.13;1.75;;;17.80;99.90;;;;;;5028989;28;20052;-71
2022/08/02 00:43:41;;;;;;;2.70;1.98;;;17.70;99.90;;;;;;5025398;28;20041;-72
2022/08/02 00:46:07;;;;;;;3.22;1.83;;;17.50;99.90;;;;;;5027922;28;20034;-70
2022/08/02 00:48:32;;;;;;;3.67;1.88;;;17.50;99.90;;;;;;5027825;28;20426;-71
2022/08/02 00:50:58;;;;;;;5.55;2.10;;;17.50;99.90;;;;;;5028196;28;20886;-72
2022/08/02 00:53:24;;;;;;;2.60;1.83;;;17.50;99.90;;;;;;5024345;28;20040;-72
2022/08/02 00:55:49;;;;;;;3.22;1.92;;;17.60;99.90;;;;;;5025738;28;20037;-72
2022/08/02 00:58:15;;;;;;;3.03;2.00;;;17.50;99.90;;;;;;5026418;28;20617;-73
2022/08/02 01:00:41;;;;;;;3.92;1.85;;;17.60;99.90;;;;;;5024224;28;20793;-71
2022/08/02 01:03:06;;;;;;;3.97;2.05;;;17.50;99.90;;;;;;5025718;28;20112;-72
2022/08/02 01:05:32;;;;;;;2.47;1.70;;;17.30;99.90;;;;;;5028615;28;20034;-72
2022/08/02 01:07:58;;;;;;;2.67;1.90;;;17.20;99.90;;;;;;5026619;28;20025;-72
2022/08/02 01:10:23;;;;;;;4.80;1.98;;;17.10;99.90;;;;;;5028296;28;20029;-73
2022/08/02 01:12:49;;;;;;;2.67;1.85;;;17.10;99.90;;;;;;5029728;28;20057;-71
2022/08/02 01:15:16;;;;;;;2.85;2.00;;;17.10;99.90;;;;;;5032614;28;20040;-72
2022/08/02 01:17:57;;;;;;;2.60;1.80;;;17.00;99.90;;;;;;5029661;28;20061;-72
2022/08/02 01:20:46;;;;;;;2.97;2.00;;;17.00;99.90;;;;;;5031636;28;20030;-72
2022/08/02 01:23:20;;;;;;;4.50;2.20;;;17.00;99.90;;;;;;5031224;28;20033;-73
2022/08/02 01:26:13;;;;;;;2.85;2.10;;;16.90;99.90;;;;;;5031107;28;20170;-73
2022/08/02 01:28:47;;;;;;;4.25;1.90;;;16.90;99.90;;;;;;5028684;28;20137;-71
2022/08/02 01:31:28;;;;;;;2.45;1.70;;;16.90;99.90;;;;;;5031748;28;20428;-72
2022/08/02 01:33:59;;;;;;;4.18;1.60;;;16.90;99.90;;;;;;5027224;28;20033;-72
2022/08/02 01:36:30;;;;;;;2.88;1.60;;;16.80;99.90;;;;;;5029380;28;20025;-71
2022/08/02 01:38:56;;;;;;;3.03;1.75;;;16.90;99.90;;;;;;5029121;28;20030;-72
2022/08/02 01:41:25;;;;;;;2.42;1.95;;;16.90;99.90;;;;;;5029822;28;20033;-73
2022/08/02 01:43:55;;;;;;;3.00;1.77;;;16.90;99.90;;;;;;5029709;28;20418;-73
2022/08/02 01:46:23;;;;;;;5.93;2.22;;;16.90;99.90;;;;;;5031036;28;20040;-73
2022/08/02 01:48:51;;;;;;;4.20;2.00;;;17.00;99.90;;;;;;5029026;28;20033;-73
2022/08/02 01:52:20;;;;;;;2.90;1.85;;;17.00;99.90;;;;;;5029480;28;20150;-72
2022/08/02 01:54:09;;;;;;;2.75;1.80;;;16.90;99.90;;;;;;5021086;28;20083;-71
2022/08/02 01:56:35;;;;;;;2.90;2.00;;;16.80;99.90;;;;;;5029709;28;20510;-72
2022/08/02 01:59:03;;;;;;;4.95;1.95;;;16.80;99.90;;;;;;5029329;28;20029;-71
2022/08/02 02:01:32;;;;;;;5.18;2.13;;;16.80;99.90;;;;;;5029292;28;20033;-70
2022/08/02 02:03:59;;;;;;;3.13;2.08;;;16.80;99.90;;;;;;5026116;28;20033;-72
2022/08/02 02:06:26;;;;;;;4.57;2.40;;;16.90;99.90;;;;;;5028742;28;20072;-70
2022/08/02 02:08:52;;;;;;;3.22;2.13;;;16.90;99.90;;;;;;5029661;28;20021;-72
2022/08/02 02:11:18;;;;;;;3.55;2.15;;;16.80;99.90;;;;;;5029570;28;20116;-73
2022/08/02 02:13:46;;;;;;;5.35;2.03;;;16.80;99.90;;;;;;5029043;28;20045;-70
2022/08/02 02:16:14;;;;;;;4.13;2.08;;;16.80;99.90;;;;;;5029531;28;20044;-72
2022/08/02 02:18:42;;;;;;;3.53;2.10;;;16.80;99.90;;;;;;5028267;28;20042;-70
2022/08/02 02:21:10;;;;;;;7.50;2.40;;;16.70;99.90;;;;;;5025189;28;20434;-72
2022/08/02 02:23:36;;;;;;;4.38;2.67;;;16.70;99.90;;;;;;5030132;28;20531;-71
2022/08/02 02:26:04;;;;;;;6.47;2.80;;;16.70;99.90;;;;;;5029372;28;20026;-72
2022/08/02 02:28:31;;;;;;;5.25;2.78;;;16.70;99.90;;;;;;5029152;28;20407;-71
2022/08/02 02:31:05;;;;;;;5.65;3.45;;;16.70;99.90;;;;;;5028640;28;20033;-70
2022/08/02 02:33:33;;;;;;;5.88;3.10;;;16.70;99.90;;;;;;5028069;28;20044;-72
2022/08/02 02:36:01;;;;;;;11.75;3.17;;;16.70;99.90;;;;;;5029353;28;20025;-70
2022/08/02 02:38:30;;;;;;;3.53;2.60;;;16.60;99.90;;;;;;5017839;28;20026;-71
2022/08/02 02:41:00;;;;;;;7.47;3.42;;;16.50;99.90;;;;;;5030362;28;20033;-71
2022/08/02 02:43:29;;;;;;;5.75;3.75;;;16.50;99.90;;;;;;5030272;28;20108;-71
2022/08/02 02:45:56;;;;;;;10.02;4.88;;;16.50;99.90;;;;;;5030379;28;20042;-72
2022/08/02 02:48:22;;;;;;;11.52;5.03;;;16.60;99.90;;;;;;5029444;28;20053;-73
2022/08/02 02:50:49;;;;;;;6.57;4.55;;;16.60;99.90;;;;;;5027245;28;20037;-73
2022/08/02 02:53:18;;;;;;;7.45;5.00;;;16.70;99.90;;;;;;5029826;28;20025;-73
2022/08/02 02:55:45;;;;;;;9.77;5.07;;;16.70;99.90;;;;;;5029372;28;20041;-69
2022/08/02 02:58:12;;;;;;;7.90;5.10;;;16.70;99.90;;;;;;5029813;28;20036;-72
2022/08/02 03:03:24;;;;;;;8.90;5.35;;;16.70;99.90;;;;;;5021735;28;20064;-73
2022/08/02 03:05:50;;;;;;;10.88;5.53;;;16.70;99.90;;;;;;5029191;28;20476;-71
2022/08/02 03:08:16;;;;;;;10.05;5.47;;;16.80;99.90;;;;;;5029500;28;20120;-72
2022/08/02 03:10:45;;;;;;;15.02;5.88;;;16.80;99.90;;;;;;5029077;28;20120;-72
2022/08/02 03:13:11;;;;;;;9.15;5.85;;;16.80;99.90;;;;;;5029481;28;20033;-73
2022/08/02 03:15:38;;;;;;;13.02;6.40;;;16.70;99.90;;;;;;5029103;28;20487;-72
2022/08/02 03:18:07;;;;;;;11.82;6.78;;;16.70;99.90;;;;;;5029286;28;20104;-73
2022/08/02 03:20:33;;;;;;;14.63;6.93;;;16.80;99.90;;;;;;5028901;28;20468;-72
2022/08/02 03:22:58;;;;;;;11.48;6.47;;;16.80;99.90;;;;;;5027362;28;20061;-73
2022/08/02 03:25:24;;;;;;;11.18;6.47;;;16.80;99.90;;;;;;5028643;28;20120;-72
2022/08/02 03:27:50;;;;;;;10.07;6.38;;;16.90;99.90;;;;;;5028738;28;20061;-72
2022/08/02 03:30:16;;;;;;;14.27;6.22;;;16.80;99.90;;;;;;5030341;28;20130;-72
2022/08/02 03:32:45;;;;;;;12.10;6.72;;;16.80;99.90;;;;;;5028395;28;20037;-70
2022/08/02 03:35:14;;;;;;;11.57;7.00;;;16.80;99.90;;;;;;5027068;28;20069;-70
2022/08/02 03:37:40;;;;;;;11.75;7.03;;;16.80;99.90;;;;;;5029295;28;20033;-71
2022/08/02 03:40:08;;;;;;;11.38;7.30;;;16.80;99.90;;;;;;5028746;28;20033;-71
2022/08/02 03:42:34;;;;;;;11.63;6.95;;;16.80;99.90;;;;;;5028286;28;20025;-71
2022/08/02 03:45:01;;;;;;;14.80;7.55;;;16.80;99.90;;;;;;5027293;28;20080;-72
2022/08/02 03:47:28;;;;;;;11.73;6.97;;;16.80;99.90;;;;;;5027411;28;20703;-72
2022/08/02 03:49:55;;;;;;;10.35;7.03;;;16.80;99.90;;;;;;5027128;28;20032;-71
2022/08/02 03:52:22;;;;;;;11.63;6.80;;;16.80;99.90;;;;;;5027240;28;20033;-73
2022/08/02 03:54:47;;;;;;;12.68;7.15;;;16.80;99.90;;;;;;5027734;28;20119;-70
2022/08/02 03:57:13;;;;;;;12.50;7.40;;;16.90;99.90;;;;;;5028601;28;20105;-73
2022/08/02 03:59:41;;;;;;;13.70;6.45;;;16.90;99.90;;;;;;5028805;28;20031;-73
2022/08/02 04:02:07;;;;;;;10.63;6.47;;;16.90;99.90;;;;;;5027201;28;20029;-72
2022/08/02 04:04:33;;;;;;;11.35;6.78;;;16.90;99.90;;;;;;5028510;28;20083;-72
2022/08/02 04:06:58;;;;;;;11.48;6.85;;;16.90;99.90;;;;;;5024219;28;20456;-71
2022/08/02 04:09:24;;;;;;;14.57;7.28;;;16.80;99.90;;;;;;5026497;28;20041;-71
2022/08/02 04:11:49;;;;;;;12.68;7.13;;;16.80;99.90;;;;;;5025781;28;20079;-69
2022/08/02 04:14:15;;;;;;;11.50;6.93;;;16.80;99.90;;;;;;5026238;28;20030;-71
2022/08/02 04:16:43;;;;;;;11.25;7.28;;;16.80;99.90;;;;;;5022514;28;20045;-72
2022/08/02 04:19:13;;;;;;;11.65;7.25;;;16.70;99.90;;;;;;5023778;28;20120;-72
2022/08/02 04:21:43;;;;;;;12.07;7.85;;;16.80;99.90;;;;;;5014334;28;20026;-71
2022/08/02 04:24:11;;;;;;;15.32;7.32;;;16.80;99.90;;;;;;5027978;28;20026;-73
2022/08/02 04:26:40;;;;;;;10.98;6.80;;;16.80;99.90;;;;;;5029517;28;20097;-72
2022/08/02 04:29:06;;;;;;;12.18;6.78;;;16.80;99.90;;;;;;5025024;28;20028;-72
2022/08/02 04:31:32;;;;;;;11.00;6.90;;;16.80;99.90;;;;;;5028092;28;20116;-71
2022/08/02 04:33:58;;;;;;;11.50;7.05;;;16.90;99.90;;;;;;5026061;28;20562;-72
2022/08/02 04:36:24;;;;;;;9.98;6.32;;;16.90;99.90;;;;;;5029250;28;20043;-72
2022/08/02 04:38:50;;;;;;;11.35;6.70;;;17.00;99.90;;;;;;5028550;28;20096;-70
2022/08/02 04:41:16;;;;;;;10.15;6.03;;;17.20;99.90;;;;;;5027098;28;20135;-71
2022/08/02 04:43:41;;;;;;;9.75;5.90;;;17.30;99.90;;;;;;5027007;28;20498;-71
2022/08/02 04:46:07;;;;;;;10.43;6.32;;;17.40;99.90;;;;;;5023144;28;20041;-72
2022/08/02 04:48:33;;;;;;;12.13;5.70;;;17.50;99.90;;;;;;5025104;28;20037;-71
2022/08/02 04:50:58;;;;;;;10.63;5.93;;;17.50;99.90;;;;;;5027658;28;20483;-71
2022/08/02 04:53:24;;;;;;;12.77;5.95;;;17.60;99.90;;;;;;5028675;28;20041;-70
2022/08/02 04:55:50;;;;;;;13.80;6.78;;;17.60;99.90;;;;;;5027874;28;20033;-71
2022/08/02 04:58:16;;;;;;;11.43;6.68;;;17.60;99.90;;;;;;5027979;28;20033;-72
2022/08/02 05:00:41;;;;;;;12.68;5.90;;;17.60;99.90;;;;;;5026214;28;20030;-71
2022/08/02 05:03:07;;;;;;;11.70;5.85;;;17.60;99.90;;;;;;5027446;28;20114;-72
2022/08/02 05:05:33;;;;;;;11.23;6.10;;;17.60;99.90;;;;;;5027380;28;20025;-70
2022/08/02 05:07:59;;;;;;;11.20;6.30;;;17.60;99.90;;;;;;5027211;28;20034;-71
2022/08/02 05:10:25;;;;;;;10.40;6.25;;;17.60;99.90;;;;;;5028094;28;20480;-72
2022/08/02 05:12:50;;;;;;;11.05;6.65;;;17.60;99.90;;;;;;5027263;28;20048;-69
2022/08/02 05:15:17;;;;;;;10.73;6.45;;;17.60;99.90;;;;;;5027123;28;20064;-71
2022/08/02 05:17:44;;;;;;;10.20;6.35;;;17.50;99.90;;;;;;5026682;28;20068;-71
2022/08/02 05:20:12;;;;;;;11.80;6.68;;;17.50;99.90;;;;;;5024650;28;20028;-70
2022/08/02 05:22:38;;;;;;;10.50;6.30;;;17.50;99.90;;;;;;5027390;28;20041;-71
2022/08/02 05:25:04;;;;;;;8.93;5.88;;;17.50;99.90;;;;;;5027093;28;20422;-72
2022/08/02 05:27:31;;;;;;;11.13;6.18;;;17.60;99.90;;;;;;5028505;28;20022;-71
2022/08/02 05:29:57;;;;;;;9.02;5.90;;;17.80;99.90;;;;;;5026032;28;20080;-73
2022/08/02 05:32:23;;;;;;;8.93;5.70;;;17.90;99.90;;;;;;5026968;28;20038;-72
2022/08/02 05:34:49;;;;;;;7.45;5.03;;;18.10;99.90;;;;;;5023086;28;20037;-71
2022/08/02 05:37:14;;;;;;;7.72;5.05;;;18.30;99.90;;;;;;5025842;28;20034;-72
2022/08/02 05:39:40;;;;;;;9.85;5.03;;;18.50;99.90;;;;;;5025394;28;20040;-70
2022/08/02 05:42:06;;;;;;;8.80;5.30;;;18.70;99.90;;;;;;5023003;28;20030;-72
2022/08/02 05:44:31;;;;;;;10.05;5.82;;;18.90;99.90;;;;;;5025940;28;20104;-71
2022/08/02 05:46:57;;;;;;;7.95;4.40;;;18.90;99.90;;;;;;5023559;28;20033;-71
2022/08/02 05:49:22;;;;;;;8.98;4.78;;;19.00;99.90;;;;;;5026079;28;20030;-71
2022/08/02 05:52:16;;;;;;;9.10;4.30;;;19.00;99.90;;;;;;5026530;28;20087;-72
2022/08/02 05:55:00;;;;;;;6.75;4.82;;;19.00;99.90;;;;;;5020621;28;20107;-71
2022/08/02 05:57:37;;;;;;;7.55;4.80;;;19.00;99.90;;;;;;5027519;28;20037;-70
2022/08/02 06:00:13;;;;;;;9.57;5.60;;;19.00;99.90;;;;;;5029261;28;20040;-71
2022/08/02 06:02:41;;;;;;;7.60;5.10;;;19.00;99.90;;;;;;5029604;28;20054;-70
2022/08/02 06:05:13;;;;;;;7.93;4.90;;;19.00;99.90;;;;;;5011608;28;20034;-72
2022/08/02 06:07:44;;;;;;;9.52;5.07;;;19.10;99.90;;;;;;5014192;28;20029;-71
2022/08/02 06:10:14;;;;;;;7.30;4.20;;;19.10;99.90;;;;;;5028199;28;20087;-71
2022/08/02 06:13:02;;;;;;;7.80;4.70;;;19.20;99.90;;;;;;5029192;28;20102;-70
2022/08/02 06:15:28;;;;;;;7.13;4.68;;;19.50;99.90;;;;;;5028689;28;20040;-71
2022/08/02 06:17:54;;;;;;;8.98;5.10;;;19.60;99.90;;;;;;5030562;28;20057;-72
2022/08/02 06:20:20;;;;;;;6.57;4.80;;;19.70;99.90;;;;;;5030604;28;20029;-72
2022/08/02 06:22:46;;;;;;;9.02;4.90;;;19.80;99.90;;;;;;5030502;28;20037;-72
2022/08/02 06:25:13;;;;;;;7.25;4.43;;;19.80;99.90;;;;;;5029538;28;20044;-69
2022/08/02 06:27:41;;;;;;;8.35;5.20;;;19.70;99.90;;;;;;5029543;28;20032;-72
2022/08/02 06:30:09;;;;;;;8.38;5.13;;;19.80;99.90;;;;;;5028121;28;20606;-70
2022/08/02 06:32:34;;;;;;;9.18;5.00;;;19.80;99.90;;;;;;5030211;28;20065;-71
2022/08/02 06:35:02;;;;;;;7.65;5.18;;;19.90;99.90;;;;;;5030138;28;20164;-72
2022/08/02 06:38:12;;;;;;;7.93;4.70;;;20.00;99.90;;;;;;5030459;28;20057;-72
2022/08/02 06:41:04;;;;;;;8.43;4.97;;;20.20;99.90;;;;;;4984224;28;20065;-72
2022/08/02 06:43:32;;;;;;;7.78;4.70;;;20.40;99.90;;;;;;5029992;28;20531;-70
2022/08/02 06:45:58;;;;;;;7.68;4.97;;;20.40;99.90;;;;;;5027374;28;20044;-70
2022/08/02 06:48:24;;;;;;;8.80;4.80;;;20.40;99.90;;;;;;5028319;28;20384;-71
2022/08/02 06:50:49;;;;;;;8.40;5.30;;;20.50;99.90;;;;;;5029729;28;20087;-72
2022/08/02 06:53:15;;;;;;;9.00;5.25;;;20.50;99.90;;;;;;5025928;28;20029;-71
2022/08/02 06:55:41;;;;;;;6.95;4.75;;;20.50;99.90;;;;;;5026818;28;20091;-70
2022/08/02 06:58:06;;;;;;;9.32;5.00;;;20.60;99.90;;;;;;5028942;28;20037;-70
2022/08/02 07:00:32;;;;;;;16.52;5.65;;;20.60;99.90;;;;;;5030565;28;20072;-72
2022/08/02 07:02:58;;;;;;;12.32;5.25;;;20.60;99.90;;;;;;5030245;28;20065;-68
2022/08/02 07:05:24;;;;;;;12.43;5.32;;;20.70;99.90;;;;;;5028766;28;20029;-70
2022/08/02 07:07:49;;;;;;;8.95;5.50;;;20.80;99.90;;;;;;5030549;28;20104;-71
2022/08/02 07:10:15;;;;;;;9.48;5.45;;;20.90;99.90;;;;;;5029481;28;20025;-72
2022/08/02 07:12:41;;;;;;;8.80;5.05;;;21.10;99.90;;;;;;5028823;28;20099;-70
2022/08/02 07:15:08;;;;;;;11.77;5.43;;;21.10;99.90;;;;;;5029790;28;20366;-71
2022/08/02 07:17:35;;;;;;;13.23;5.13;;;21.10;99.90;;;;;;5030054;28;20128;-72
2022/08/02 07:20:01;;;;;;;10.30;5.43;;;21.20;99.90;;;;;;5029975;28;20087;-68
2022/08/02 07:22:27;;;;;;;8.70;5.50;;;21.40;99.90;;;;;;5030111;28;20076;-71
2022/08/02 07:24:55;;;;;;;8.50;5.80;;;21.60;99.90;;;;;;5030595;28;20059;-71
2022/08/02 07:27:21;;;;;;;8.02;5.53;;;21.50;99.90;;;;;;5028720;28;20029;-71
2022/08/02 07:29:47;;;;;;;9.52;5.65;;;21.60;99.90;;;;;;5028849;28;20041;-69
2022/08/02 07:32:26;;;;;;;9.52;5.70;;;21.60;99.90;;;;;;5025978;28;20034;-70
2022/08/02 07:34:52;;;;;;;10.38;5.68;;;21.60;99.90;;;;;;5027589;28;20041;-72
2022/08/02 07:37:19;;;;;;;8.10;5.63;;;21.70;99.90;;;;;;5027366;28;20080;-72
2022/08/02 07:39:45;;;;;;;9.07;6.00;;;21.60;99.90;;;;;;5028664;28;20041;-71
2022/08/02 07:42:11;;;;;;;11.25;6.00;;;21.60;99.90;;;;;;5026881;28;20038;-73
2022/08/02 07:44:36;;;;;;;10.13;5.65;;;21.70;99.90;;;;;;5028505;28;20087;-68
2022/08/02 07:47:03;;;;;;;13.65;6.32;;;21.80;99.90;;;;;;5027851;28;20067;-71
2022/08/02 07:49:29;;;;;;;8.82;5.82;;;22.00;99.90;;;;;;5029802;28;20104;-72
2022/08/02 07:51:55;;;;;;;11.77;7.28;;;21.90;99.90;;;;;;5028808;28;20064;-72
2022/08/02 07:54:21;;;;;;;13.10;6.90;;;21.90;99.90;;;;;;5028950;28;20199;-71
2022/08/02 07:56:47;;;;;;;12.38;7.57;;;22.00;99.90;;;;;;5026135;28;20048;-70
2022/08/02 07:59:13;;;;;;;11.80;6.70;;;22.10;99.90;;;;;;5026085;28;20108;-71
2022/08/02 08:01:39;;;;;;;11.55;6.80;;;22.30;99.90;;;;;;5029767;28;20095;-71
2022/08/02 08:04:05;;;;;;;10.50;6.05;;;22.50;99.90;;;;;;5027059;28;20029;-70
2022/08/02 08:06:31;;;;;;;9.38;6.22;;;22.70;99.90;;;;;;5026992;28;20076;-70
2022/08/02 08:08:57;;;;;;;12.32;6.63;;;22.90;99.90;;;;;;5026902;28;20041;-72
2022/08/02 08:11:23;;;;;;;10.13;6.07;;;22.90;99.90;;;;;;5026739;28;20341;-69
2022/08/02 08:13:49;;;;;;;19.95;7.60;;;22.90;99.90;;;;;;5028229;28;20033;-72
2022/08/02 08:16:15;;;;;;;9.38;5.90;;;23.10;99.90;;;;;;5025102;28;20490;-70
2022/08/02 08:18:40;;;;;;;11.85;6.72;;;23.10;99.90;;;;;;5028749;28;20047;-70
2022/08/02 08:21:06;;;;;;;10.32;6.00;;;23.20;99.90;;;;;;5025692;28;20033;-71
2022/08/02 08:23:32;;;;;;;10.15;6.22;;;23.30;99.90;;;;;;5026408;28;20086;-71
2022/08/02 08:25:57;;;;;;;10.60;5.70;;;23.40;99.90;;;;;;5026713;28;20471;-71
2022/08/02 08:28:23;;;;;;;10.38;6.22;;;23.30;99.90;;;;;;5026989;28;20824;-70
2022/08/02 08:30:49;;;;;;;9.82;6.25;;;23.40;99.90;;;;;;5026190;28;20112;-70
2022/08/02 08:33:15;;;;;;;8.63;5.65;;;23.50;99.90;;;;;;5028034;28;20061;-71
2022/08/02 08:35:40;;;;;;;12.43;5.78;;;23.40;99.90;;;;;;5027194;28;20037;-70
2022/08/02 08:38:07;;;;;;;9.85;5.97;;;23.60;99.90;;;;;;5023789;28;20171;-67
2022/08/02 08:40:33;;;;;;;8.70;5.57;;;23.70;99.90;;;;;;5029104;28;20039;-68
2022/08/02 08:42:59;;;;;;;11.55;6.07;;;23.80;99.90;;;;;;5026303;28;20033;-68
2022/08/02 08:45:25;;;;;;;12.73;6.05;;;23.80;99.90;;;;;;5028412;28;20690;-71
2022/08/02 08:47:59;;;;;;;9.00;4.88;;;23.80;99.90;;;;;;5026714;28;20037;-71
2022/08/02 08:50:25;;;;;;;17.88;12.85;;;23.80;99.90;;;;;;5027233;28;20029;-69
2022/08/02 08:53:23;;;;;;;9.05;5.93;;;23.80;99.90;;;;;;5026205;28;20048;-70
2022/08/02 08:55:51;;;;;;;8.45;5.43;;;23.90;99.90;;;;;;5014990;28;20056;-70
2022/08/02 08:58:17;;;;;;;6.57;4.95;;;24.00;99.90;;;;;;5026070;28;20076;-70
2022/08/02 09:00:43;;;;;;;8.13;5.05;;;24.10;99.90;;;;;;5026125;28;20037;-68
2022/08/02 09:03:09;;;;;;;16.08;10.60;;;24.40;99.90;;;;;;5025252;28;20045;-69
2022/08/02 09:05:37;;;;;;;7.05;4.90;;;24.50;99.90;;;;;;5024708;28;20535;-69
2022/08/02 09:08:03;;;;;;;9.50;5.28;;;24.50;99.90;;;;;;5027374;28;20113;-68
2022/08/02 09:10:35;;;;;;;6.72;5.00;;;24.50;99.90;;;;;;5026221;28;20531;-71
2022/08/02 09:13:08;;;;;;;10.55;5.00;;;24.70;99.90;;;;;;5027640;28;20037;-69
2022/08/02 09:15:35;;;;;;;6.55;4.80;;;24.80;99.90;;;;;;5027443;28;20049;-70
2022/08/02 09:18:04;;;;;;;8.88;5.10;;;24.80;99.90;;;;;;5028331;28;20065;-71
2022/08/02 09:20:35;;;;;;;8.85;4.65;;;24.70;99.90;;;;;;5027319;28;20072;-69
2022/08/02 09:23:09;;;;;;;10.35;5.43;;;24.60;99.90;;;;;;5026526;28;20790;-71
2022/08/02 09:25:35;;;;;;;9.30;5.43;;;24.80;99.90;;;;;;5024531;28;20033;-69
2022/08/02 09:28:04;;;;;;;9.70;4.68;;;25.20;99.90;;;;;;5027779;28;20037;-70
2022/08/02 09:30:31;;;;;;;6.30;4.68;;;25.30;99.90;;;;;;5027605;28;20120;-69
2022/08/02 09:32:57;;;;;;;12.13;4.60;;;25.70;99.90;;;;;;5028417;28;20124;-68
2022/08/02 09:35:32;;;;;;;6.63;4.60;;;25.90;99.90;;;;;;5029549;28;20529;-66
2022/08/02 09:38:09;;;;;;;5.35;4.20;;;26.10;99.90;;;;;;5030842;28;20047;-69
2022/08/02 09:40:39;;;;;;;8.25;5.18;;;26.40;99.90;;;;;;5031009;28;20460;-71
2022/08/02 09:43:08;;;;;;;6.57;4.40;;;26.50;99.90;;;;;;5032292;28;20041;-69
2022/08/02 09:45:36;;;;;;;6.55;4.35;;;25.90;99.90;;;;;;5027845;28;20021;-67
2022/08/02 09:48:06;;;;;;;5.90;4.47;;;25.60;99.90;;;;;;5030080;28;20046;-67
2022/08/02 09:50:32;;;;;;;7.93;4.22;;;25.40;99.90;;;;;;5031560;28;20083;-68
2022/08/02 09:52:58;;;;;;;7.60;4.93;;;25.30;99.90;;;;;;5029047;28;20120;-68
2022/08/02 09:55:25;;;;;;;7.57;4.90;;;24.80;99.90;;;;;;5028107;28;20325;-68
2022/08/02 09:57:51;;;;;;;9.50;4.55;;;24.50;99.90;;;;;;5028961;28;20029;-68
2022/08/02 10:00:17;;;;;;;6.28;4.43;;;24.70;99.90;;;;;;5027516;28;20116;-69
2022/08/02 10:03:07;;;;;;;7.38;3.72;;;25.20;99.90;;;;;;5028520;28;20554;-67
2022/08/02 10:06:05;;;;;;;8.05;3.53;;;25.70;99.90;;;;;;5028652;28;20030;-70
2022/08/02 10:08:32;;;;;;;5.00;3.58;;;26.20;98.90;;;;;;4990098;28;20053;-69
2022/08/02 10:11:00;;;;;;;4.32;2.55;;;26.70;99.00;;;;;;5028539;28;20030;-67
2022/08/02 10:13:34;;;;;;;8.40;2.78;;;26.80;95.80;;;;;;5028242;28;20064;-71
2022/08/02 10:16:01;;;;;;;6.10;3.13;;;26.90;95.60;;;;;;5028681;28;20392;-70
2022/08/02 10:18:28;;;;;;;6.00;3.33;;;27.00;97.10;;;;;;5022516;28;20061;-70
2022/08/02 10:20:55;;;;;;;7.53;3.50;;;27.40;97.50;;;;;;5030400;28;20029;-70
2022/08/02 10:23:24;;;;;;;10.98;3.40;;;27.50;94.70;;;;;;5027062;28;20029;-69
2022/08/02 10:25:52;;;;;;;2.88;2.53;;;27.50;96.30;;;;;;5030139;28;20021;-68
2022/08/02 10:28:24;;;;;;;6.20;3.03;;;27.50;94.50;;;;;;5028717;28;20032;-69
2022/08/02 10:30:54;;;;;;;3.58;2.67;;;27.80;93.50;;;;;;5027573;28;20503;-69
2022/08/02 10:33:20;;;;;;;3.97;2.90;;;27.90;92.30;;;;;;5027011;28;20261;-69
2022/08/02 10:35:50;;;;;;;4.00;2.90;;;27.80;91.70;;;;;;5027429;28;20041;-70
2022/08/02 10:38:17;;;;;;;4.10;2.80;;;27.90;92.10;;;;;;5025244;28;20041;-70
2022/08/02 10:40:44;;;;;;;4.95;3.05;;;28.10;92.00;;;;;;5026288;28;20400;-67
2022/08/02 10:43:11;;;;;;;8.40;3.33;;;28.00;90.90;;;;;;5024481;28;20068;-69
2022/08/02 10:45:36;;;;;;;6.85;3.63;;;27.80;90.60;;;;;;5025397;28;20026;-69
2022/08/02 10:48:13;;;;;;;3.60;2.60;;;27.40;91.70;;;;;;5027973;28;20061;-69
2022/08/02 10:50:45;;;;;;;5.72;2.42;;;27.20;90.40;;;;;;5024354;28;20570;-69
2022/08/02 10:53:33;;;;;;;4.13;2.20;;;27.40;90.10;;;;;;5028256;28;20033;-69
2022/08/02 10:56:04;;;;;;;2.65;2.45;;;27.60;87.80;;;;;;5016389;28;20053;-71
2022/08/02 10:58:31;;;;;;;7.65;2.20;;;27.50;87.00;;;;;;5025181;28;20029;-69
2022/08/02 11:01:05;;;;;;;3.95;2.20;;;27.40;85.90;;;;;;5028719;28;20435;-70
2022/08/02 11:03:32;;;;;;;5.35;2.30;;;27.50;87.40;;;;;;5026974;28;20083;-67
2022/08/02 11:06:02;;;;;;;3.20;2.60;;;27.80;84.90;;;;;;5028928;28;20026;-69
2022/08/02 11:08:28;;;;;;;3.97;2.67;;;28.40;87.40;;;;;;5027103;28;20035;-69
2022/08/02 11:11:21;;;;;;;2.72;2.28;;;28.70;85.60;;;;;;5029338;28;20052;-69
2022/08/02 11:14:12;;;;;;;3.97;2.28;;;28.80;82.00;;;;;;5026806;28;20069;-69
2022/08/02 11:16:56;;;;;;;4.65;3.17;;;29.10;81.40;;;;;;5027900;28;20064;-67
2022/08/02 11:19:23;;;;;;;4.93;2.47;;;29.10;81.50;;;;;;5025260;28;20064;-69
2022/08/02 11:22:02;;;;;;;6.43;3.38;;;28.90;81.60;;;;;;5027630;28;20040;-70
2022/08/02 11:24:30;;;;;;;5.07;2.97;;;28.70;82.80;;;;;;5027579;28;20033;-69
2022/08/02 11:26:58;;;;;;;3.20;2.58;;;28.50;82.60;;;;;;5030235;28;20033;-68
2022/08/02 11:29:34;;;;;;;4.82;2.50;;;28.60;80.60;;;;;;5028591;28;20238;-67
2022/08/02 11:32:00;;;;;;;3.25;2.35;;;28.90;81.10;;;;;;5025733;28;20160;-67
2022/08/02 11:34:27;;;;;;;2.95;2.22;;;29.40;80.10;;;;;;5023203;28;20553;-69
2022/08/02 11:36:53;;;;;;;4.95;2.00;;;29.10;77.60;;;;;;5025389;28;20056;-69
2022/08/02 11:39:21;;;;;;;2.78;1.70;;;28.80;76.70;;;;;;5021493;28;20026;-69
2022/08/02 11:41:55;;;;;;;1.90;1.60;;;28.90;73.10;;;;;;5026493;28;20060;-70
2022/08/02 11:44:22;;;;;;;2.80;1.88;;;29.00;72.80;;;;;;5024967;28;20124;-69
2022/08/02 11:47:01;;;;;;;3.22;1.92;;;29.50;73.30;;;;;;5023897;28;20064;-68
2022/08/02 11:49:28;;;;;;;4.10;1.90;;;29.70;69.60;;;;;;5025592;28;20068;-69
2022/08/02 11:52:05;;;;;;;5.85;1.98;;;29.50;68.30;;;;;;5015622;28;20037;-70
2022/08/02 11:54:36;;;;;;;5.03;1.75;;;29.20;72.70;;;;;;5013915;28;20049;-70
2022/08/02 11:57:12;;;;;;;4.20;1.50;;;29.10;65.80;;;;;;5028083;28;20037;-69
2022/08/02 11:59:42;;;;;;;2.00;1.63;;;29.20;64.90;;;;;;5027783;28;20877;-69
2022/08/02 12:02:09;;;;;;;2.72;1.80;;;29.40;68.70;;;;;;5029701;28;20033;-70
2022/08/02 12:04:35;;;;;;;5.18;1.90;;;29.80;67.80;;;;;;5026916;28;20179;-70
2022/08/02 12:07:02;;;;;;;3.65;1.85;;;29.50;67.00;;;;;;5026660;28;20033;-70
2022/08/02 12:09:29;;;;;;;3.25;1.90;;;29.30;68.50;;;;;;5025314;28;20448;-69
2022/08/02 12:11:56;;;;;;;2.70;2.00;;;29.40;65.80;;;;;;5027561;28;20395;-69
2022/08/02 12:14:24;;;;;;;3.72;2.05;;;29.40;62.30;;;;;;5023581;28;20037;-67
2022/08/02 12:19:35;;;;;;;4.75;2.13;;;29.20;65.60;;;;;;5024603;28;20048;-69
2022/08/02 12:22:19;;;;;;;4.70;1.92;;;29.50;67.40;;;;;;5026847;28;20041;-70
2022/08/02 12:24:47;;;;;;;5.60;2.15;;;29.40;64.90;;;;;;5027872;28;20510;-70
2022/08/02 12:27:36;;;;;;;4.15;1.83;;;29.40;69.00;;;;;;5027582;28;20029;-68
2022/08/02 12:30:08;;;;;;;6.60;2.55;;;29.30;69.50;;;;;;5021779;28;20029;-70
2022/08/02 12:32:35;;;;;;;2.63;2.00;;;29.30;66.50;;;;;;5025733;28;20040;-70
2022/08/02 12:35:12;;;;;;;2.20;1.77;;;29.10;67.30;;;;;;5019501;28;20045;-69
2022/08/02 12:37:41;;;;;;;2.60;1.95;;;29.30;65.90;;;;;;5017324;28;20460;-69
2022/08/02 12:40:36;;;;;;;4.88;1.88;;;29.70;66.10;;;;;;5027596;28;20475;-71
2022/08/02 12:43:05;;;;;;;2.25;1.80;;;29.80;64.30;;;;;;5011169;28;20601;-70
2022/08/02 12:45:43;;;;;;;1.92;1.50;;;29.50;61.10;;;;;;5024005;28;20522;-70
2022/08/02 12:48:09;;;;;;;6.05;1.70;;;29.30;61.60;;;;;;5026121;28;20034;-70
2022/08/02 12:50:36;;;;;;;3.75;1.95;;;29.70;62.10;;;;;;5024972;28;20032;-69
2022/08/02 12:53:05;;;;;;;2.80;1.88;;;29.60;61.20;;;;;;5024893;28;20045;-70
2022/08/02 12:55:31;;;;;;;3.08;1.52;;;29.40;64.70;;;;;;5021713;28;20034;-69
2022/08/02 12:58:02;;;;;;;2.35;1.50;;;29.50;62.20;;;;;;5013734;28;20392;-69